Time;durP1;ratioP1;P1;durP2;ratioP2;P2;SDS_P1;SDS_P2;PMS_P1;PMS_P2;Temp;Humidity;BMP_temperature;BMP_pressure;BME280_temperature;BME280_humidity;BME280_pressure;Samples;Min_cycle;Max_cycle;Signal;HPM_P1;HPM_P2
2021/01/02 00:01:18;;;;;;;24.27;18.77;;;;;;;;;;4998998;28;20038;-66
2021/01/02 00:04:07;;;;;;;22.35;17.42;;;;;;;;;;4999316;28;20679;-66
2021/01/02 00:07:01;;;;;;;22.25;16.83;;;;;;;;;;4995454;28;20524;-67
2021/01/02 00:09:29;;;;;;;22.77;16.42;;;;;;;;;;4993756;28;20544;-66
2021/01/02 00:12:02;;;;;;;23.02;14.52;;;;;;;;;;4999426;28;20364;-66
2021/01/02 00:15:02;;;;;;;20.90;16.15;;;;;;;;;;4998482;28;20034;-66
2021/01/02 00:17:55;;;;;;;30.33;21.05;;;;;;;;;;4999141;28;20469;-66
2021/01/02 00:21:20;;;;;;;20.48;15.43;;;;;;;;;;5000451;28;20397;-66
2021/01/02 00:24:03;;;;;;;19.58;15.13;;;;;;;;;;4935548;29;20035;-66
2021/01/02 00:26:45;;;;;;;23.83;17.02;;;;;;;;;;4936629;29;20035;-66
2021/01/02 00:29:18;;;;;;;26.10;16.63;;;;;;;;;;4983005;28;20041;-66
2021/01/02 00:32:08;;;;;;;21.35;16.80;;;;;;;;;;4999503;28;20469;-66
2021/01/02 00:35:03;;;;;;;23.70;16.40;;;;;;;;;;5000387;28;20082;-66
2021/01/02 00:37:39;;;;;;;28.05;17.23;;;;;;;;;;4999668;28;20030;-66
2021/01/02 00:40:12;;;;;;;45.78;21.48;;;;;;;;;;5001080;28;20460;-66
2021/01/02 00:42:48;;;;;;;48.83;23.05;;;;;;;;;;5001860;28;20042;-66
2021/01/02 00:45:21;;;;;;;31.50;17.30;;;;;;;;;;5001268;28;20056;-66
2021/01/02 00:47:48;;;;;;;23.15;16.30;;;;;;;;;;5002334;28;20369;-66
2021/01/02 00:50:15;;;;;;;20.83;13.70;;;;;;;;;;5001490;28;20114;-66
2021/01/02 00:52:57;;;;;;;19.30;14.55;;;;;;;;;;5000704;28;20466;-66
2021/01/02 00:55:25;;;;;;;;;;;;;;;;;;5000570;28;20050;-66
2021/01/02 00:58:04;;;;;;;23.83;15.35;;;;;;;;;;4997377;28;20016;-66
2021/01/02 01:00:35;;;;;;;18.65;14.93;;;;;;;;;;4999144;28;20102;-66
2021/01/02 01:03:11;;;;;;;16.77;14.15;;;;;;;;;;5002684;28;20428;-66
2021/01/02 01:05:38;;;;;;;19.20;14.93;;;;;;;;;;4999625;28;20461;-66
2021/01/02 01:08:06;;;;;;;20.30;15.20;;;;;;;;;;5002495;28;20053;-66
2021/01/02 01:10:35;;;;;;;20.00;15.45;;;;;;;;;;5001014;28;20038;-66
2021/01/02 01:13:18;;;;;;;20.63;13.98;;;;;;;;;;5003058;28;20127;-66
2021/01/02 01:15:45;;;;;;;28.08;17.25;;;;;;;;;;5001397;28;20034;-66
2021/01/02 01:18:16;;;;;;;26.95;16.15;;;;;;;;;;5001349;28;20116;-66
2021/01/02 01:20:45;;;;;;;28.02;17.23;;;;;;;;;;5001742;28;20034;-66
2021/01/02 01:23:31;;;;;;;34.28;20.02;;;;;;;;;;4999290;28;20400;-65
2021/01/02 01:26:23;;;;;;;28.88;16.13;;;;;;;;;;5002253;28;20041;-66
2021/01/02 01:28:55;;;;;;;20.35;13.82;;;;;;;;;;4999883;28;20044;-66
2021/01/02 01:31:21;;;;;;;23.63;14.95;;;;;;;;;;4999501;28;20093;-66
2021/01/02 01:33:51;;;;;;;24.20;14.63;;;;;;;;;;4999639;28;20117;-66
2021/01/02 01:36:20;;;;;;;19.48;14.80;;;;;;;;;;4998116;28;20029;-66
2021/01/02 01:38:53;;;;;;;20.48;14.20;;;;;;;;;;5000227;28;20085;-66
2021/01/02 01:41:43;;;;;;;21.23;14.68;;;;;;;;;;4999490;28;20038;-66
2021/01/02 01:44:09;;;;;;;19.27;14.38;;;;;;;;;;4998866;28;20052;-66
2021/01/02 01:46:36;;;;;;;16.38;13.07;;;;;;;;;;5000555;28;20466;-65
2021/01/02 01:49:08;;;;;;;18.05;12.82;;;;;;;;;;5001750;28;20022;-66
2021/01/02 01:51:52;;;;;;;19.08;14.15;;;;;;;;;;4998886;28;20264;-66
2021/01/02 01:55:19;;;;;;;16.05;12.48;;;;;;;;;;5000107;28;20042;-66
2021/01/02 01:57:47;;;;;;;19.33;13.40;;;;;;;;;;4922019;29;20055;-66
2021/01/02 02:00:17;;;;;;;17.55;12.55;;;;;;;;;;4939614;29;20126;-65
2021/01/02 02:02:45;;;;;;;17.80;13.75;;;;;;;;;;4970693;28;20045;-66
2021/01/02 02:05:13;;;;;;;19.27;14.27;;;;;;;;;;5000609;28;20079;-66
2021/01/02 02:07:53;;;;;;;20.55;14.82;;;;;;;;;;5000689;28;20106;-65
2021/01/02 02:10:28;;;;;;;19.25;14.65;;;;;;;;;;4997397;28;20366;-65
2021/01/02 02:12:55;;;;;;;18.23;14.52;;;;;;;;;;5000081;28;20052;-66
2021/01/02 02:15:23;;;;;;;18.15;14.43;;;;;;;;;;4997945;28;20023;-66
2021/01/02 02:17:52;;;;;;;17.77;13.80;;;;;;;;;;4999049;28;20069;-66
2021/01/02 02:20:25;;;;;;;22.00;14.15;;;;;;;;;;4997427;28;20045;-66
2021/01/02 02:23:07;;;;;;;19.00;14.38;;;;;;;;;;4999347;28;20033;-66
2021/01/02 02:25:49;;;;;;;16.23;13.23;;;;;;;;;;4998813;28;20049;-66
2021/01/02 02:28:35;;;;;;;16.08;12.93;;;;;;;;;;4999227;28;20167;-66
2021/01/02 02:31:07;;;;;;;16.00;13.32;;;;;;;;;;4999928;28;20065;-66
2021/01/02 02:33:35;;;;;;;16.83;12.93;;;;;;;;;;4999593;28;20030;-66
2021/01/02 02:36:03;;;;;;;17.35;12.30;;;;;;;;;;4997539;28;20052;-66
2021/01/02 02:38:35;;;;;;;17.83;12.40;;;;;;;;;;4997348;28;20034;-66
2021/01/02 02:41:00;;;;;;;20.75;13.18;;;;;;;;;;4999568;28;20034;-66
2021/01/02 02:43:27;;;;;;;18.63;12.35;;;;;;;;;;4996861;28;20036;-66
2021/01/02 02:45:56;;;;;;;14.57;11.63;;;;;;;;;;5001631;28;20034;-66
2021/01/02 02:48:23;;;;;;;18.30;12.50;;;;;;;;;;4999709;28;20039;-66
2021/01/02 02:50:52;;;;;;;19.17;11.90;;;;;;;;;;4997336;28;20079;-66
2021/01/02 02:53:17;;;;;;;17.65;12.07;;;;;;;;;;4998027;28;20034;-66
2021/01/02 02:55:43;;;;;;;21.13;12.43;;;;;;;;;;4999013;28;20080;-66
2021/01/02 02:58:10;;;;;;;19.42;12.35;;;;;;;;;;4999916;28;20109;-66
2021/01/02 03:00:39;;;;;;;18.85;12.75;;;;;;;;;;4999641;28;20057;-66
2021/01/02 03:03:09;;;;;;;16.35;12.75;;;;;;;;;;4993312;28;20075;-66
2021/01/02 03:05:38;;;;;;;18.17;13.00;;;;;;;;;;4999509;28;20053;-66
2021/01/02 03:08:05;;;;;;;18.15;12.85;;;;;;;;;;5000315;28;20045;-66
2021/01/02 03:10:30;;;;;;;21.58;12.80;;;;;;;;;;4997323;28;20106;-66
2021/01/02 03:12:55;;;;;;;16.77;12.85;;;;;;;;;;4998205;28;20204;-66
2021/01/02 03:15:25;;;;;;;15.45;12.65;;;;;;;;;;4996809;28;20045;-66
2021/01/02 03:17:51;;;;;;;22.30;13.85;;;;;;;;;;4999054;28;20022;-66
2021/01/02 03:20:17;;;;;;;17.65;13.57;;;;;;;;;;4997524;28;20043;-66
2021/01/02 03:22:45;;;;;;;19.60;13.80;;;;;;;;;;5000576;28;20304;-66
2021/01/02 03:25:13;;;;;;;20.73;14.20;;;;;;;;;;4999377;28;20358;-66
2021/01/02 03:27:39;;;;;;;26.75;19.23;;;;;;;;;;4999853;28;20049;-66
2021/01/02 03:30:07;;;;;;;25.38;18.50;;;;;;;;;;4998616;28;20034;-66
2021/01/02 03:32:34;;;;;;;30.65;20.95;;;;;;;;;;4998871;28;20037;-66
2021/01/02 03:35:00;;;;;;;25.60;18.50;;;;;;;;;;4999607;28;20045;-66
2021/01/02 03:37:26;;;;;;;25.58;18.85;;;;;;;;;;4997540;28;20053;-66
2021/01/02 03:39:51;;;;;;;23.60;16.65;;;;;;;;;;4997891;28;20453;-66
2021/01/02 03:42:17;;;;;;;19.58;16.33;;;;;;;;;;4998095;28;20030;-66
2021/01/02 03:44:42;;;;;;;24.42;16.10;;;;;;;;;;5000062;28;20306;-66
2021/01/02 03:47:08;;;;;;;25.77;16.42;;;;;;;;;;4999150;28;20689;-66
2021/01/02 03:49:35;;;;;;;26.15;16.33;;;;;;;;;;5003049;28;20034;-66
2021/01/02 03:52:02;;;;;;;19.23;15.27;;;;;;;;;;5004086;28;20120;-66
2021/01/02 03:54:28;;;;;;;20.80;15.70;;;;;;;;;;5001082;28;20041;-66
2021/01/02 03:56:53;;;;;;;20.33;16.85;;;;;;;;;;5001813;28;20038;-65
2021/01/02 03:59:18;;;;;;;23.30;15.32;;;;;;;;;;5001961;28;20042;-65
2021/01/02 04:01:51;;;;;;;20.10;15.38;;;;;;;;;;4996527;28;20081;-65
2021/01/02 04:04:16;;;;;;;19.45;15.70;;;;;;;;;;5002050;28;20449;-65
2021/01/02 04:06:42;;;;;;;23.20;16.33;;;;;;;;;;5002304;28;20034;-66
2021/01/02 04:09:07;;;;;;;23.35;15.80;;;;;;;;;;5000763;28;20035;-66
2021/01/02 04:11:39;;;;;;;26.63;16.42;;;;;;;;;;5001426;28;20046;-65
2021/01/02 04:14:04;;;;;;;23.92;17.73;;;;;;;;;;5002590;28;20052;-65
2021/01/02 04:16:31;;;;;;;21.92;17.13;;;;;;;;;;5001549;28;20030;-66
2021/01/02 04:18:57;;;;;;;20.95;16.40;;;;;;;;;;5001440;28;20441;-65
2021/01/02 04:21:22;;;;;;;24.17;17.25;;;;;;;;;;5000988;28;20062;-65
2021/01/02 04:23:47;;;;;;;23.42;18.63;;;;;;;;;;5003864;28;20120;-65
2021/01/02 04:26:18;;;;;;;24.55;17.98;;;;;;;;;;5002548;28;20069;-65
2021/01/02 04:28:43;;;;;;;28.63;18.73;;;;;;;;;;5001866;28;20499;-66
2021/01/02 04:31:09;;;;;;;25.05;19.15;;;;;;;;;;5002151;28;20034;-66
2021/01/02 04:33:34;;;;;;;29.35;19.15;;;;;;;;;;5002022;28;20032;-65
2021/01/02 04:35:59;;;;;;;24.95;18.17;;;;;;;;;;5003446;28;20084;-65
2021/01/02 04:38:25;;;;;;;26.15;19.00;;;;;;;;;;4999599;28;20030;-66
2021/01/02 04:40:55;;;;;;;23.23;17.73;;;;;;;;;;4998391;28;20034;-65
2021/01/02 04:43:20;;;;;;;27.48;19.38;;;;;;;;;;5000482;28;20038;-66
2021/01/02 04:45:46;;;;;;;30.08;19.55;;;;;;;;;;5003002;28;20056;-65
2021/01/02 04:48:12;;;;;;;26.80;20.08;;;;;;;;;;5001093;28;20069;-65
2021/01/02 04:50:38;;;;;;;27.52;20.60;;;;;;;;;;4999970;28;20683;-66
2021/01/02 04:53:04;;;;;;;30.85;20.40;;;;;;;;;;5002435;28;20042;-66
2021/01/02 04:55:32;;;;;;;26.55;19.70;;;;;;;;;;5000930;28;20042;-66
2021/01/02 04:57:58;;;;;;;31.05;20.35;;;;;;;;;;5000435;28;20038;-66
2021/01/02 05:00:25;;;;;;;25.85;20.20;;;;;;;;;;4996072;28;20030;-66
2021/01/02 05:02:52;;;;;;;31.40;20.33;;;;;;;;;;5001050;28;20026;-66
2021/01/02 05:05:18;;;;;;;27.73;19.63;;;;;;;;;;4998318;28;20033;-66
2021/01/02 05:07:43;;;;;;;26.63;19.88;;;;;;;;;;5001651;28;20104;-66
2021/01/02 05:10:09;;;;;;;26.08;19.23;;;;;;;;;;5000863;28;20030;-66
2021/01/02 05:12:35;;;;;;;31.52;19.45;;;;;;;;;;4997986;28;20375;-66
2021/01/02 05:15:08;;;;;;;25.83;19.92;;;;;;;;;;5002555;28;20034;-66
2021/01/02 05:17:35;;;;;;;32.05;19.05;;;;;;;;;;5000951;28;20807;-66
2021/01/02 05:20:02;;;;;;;25.48;19.55;;;;;;;;;;5002002;28;20124;-66
2021/01/02 05:22:28;;;;;;;28.02;19.25;;;;;;;;;;4997005;28;20034;-66
2021/01/02 05:25:09;;;;;;;30.80;22.63;;;;;;;;;;5002262;28;20543;-66
2021/01/02 05:27:35;;;;;;;;;;;;;;;;;;4998274;28;20068;-66
2021/01/02 05:30:27;;;;;;;29.45;19.33;;;;;;;;;;4999692;28;19948;-66
2021/01/02 05:32:53;;;;;;;;;;;;;;;;;;4997822;28;20042;-66
2021/01/02 05:35:22;;;;;;;27.42;19.10;;;;;;;;;;5000174;28;19968;-66
2021/01/02 05:37:48;;;;;;;29.33;20.75;;;;;;;;;;5002336;28;20036;-66
2021/01/02 05:40:32;;;;;;;29.67;19.50;;;;;;;;;;4998842;28;20042;-66
2021/01/02 05:42:57;;;;;;;28.88;19.98;;;;;;;;;;5002016;28;20060;-66
2021/01/02 05:45:27;;;;;;;26.67;19.55;;;;;;;;;;4999496;28;20524;-66
2021/01/02 05:47:56;;;;;;;32.22;19.88;;;;;;;;;;4998538;28;20088;-66
2021/01/02 05:50:22;;;;;;;27.77;19.55;;;;;;;;;;4999577;28;20034;-66
2021/01/02 05:52:49;;;;;;;25.13;18.20;;;;;;;;;;5001884;28;20057;-66
2021/01/02 05:55:28;;;;;;;28.65;19.73;;;;;;;;;;5000367;28;20069;-66
2021/01/02 05:57:54;;;;;;;28.50;19.70;;;;;;;;;;4998329;28;20470;-66
2021/01/02 06:00:20;;;;;;;27.48;18.70;;;;;;;;;;4997151;28;20064;-66
2021/01/02 06:02:45;;;;;;;27.30;19.17;;;;;;;;;;5000132;28;20034;-66
2021/01/02 06:05:11;;;;;;;29.08;19.58;;;;;;;;;;4998133;28;20041;-66
2021/01/02 06:07:39;;;;;;;29.20;18.92;;;;;;;;;;5000576;28;20492;-66
2021/01/02 06:10:09;;;;;;;27.38;18.58;;;;;;;;;;4997927;28;20656;-66
2021/01/02 06:12:43;;;;;;;25.83;18.58;;;;;;;;;;4999552;28;20058;-66
2021/01/02 06:15:11;;;;;;;27.90;19.38;;;;;;;;;;4998925;28;20037;-66
2021/01/02 06:17:41;;;;;;;27.33;18.02;;;;;;;;;;5000100;28;20041;-66
2021/01/02 06:20:08;;;;;;;26.95;19.17;;;;;;;;;;5000349;28;20076;-66
2021/01/02 06:22:38;;;;;;;44.17;32.95;;;;;;;;;;4997473;28;20053;-66
2021/01/02 06:25:06;;;;;;;39.70;27.98;;;;;;;;;;5001177;28;20432;-66
2021/01/02 06:27:32;;;;;;;30.55;21.13;;;;;;;;;;4999104;28;20058;-66
2021/01/02 06:29:59;;;;;;;28.52;20.77;;;;;;;;;;5000576;28;20100;-66
2021/01/02 06:32:26;;;;;;;28.55;18.42;;;;;;;;;;4991809;28;20052;-66
2021/01/02 06:35:17;;;;;;;25.17;17.88;;;;;;;;;;5000991;28;20030;-66
2021/01/02 06:37:46;;;;;;;26.25;18.52;;;;;;;;;;5000428;28;20040;-66
2021/01/02 06:40:25;;;;;;;27.85;18.75;;;;;;;;;;4996928;28;20037;-66
2021/01/02 06:42:54;;;;;;;29.42;20.00;;;;;;;;;;5000314;28;20022;-66
2021/01/02 06:45:37;;;;;;;27.42;19.23;;;;;;;;;;4998444;28;20097;-66
2021/01/02 06:48:27;;;;;;;28.60;18.95;;;;;;;;;;4998903;28;20113;-66
2021/01/02 06:50:57;;;;;;;29.20;19.70;;;;;;;;;;4999397;28;20124;-66
2021/01/02 06:53:26;;;;;;;25.40;18.00;;;;;;;;;;4998102;28;20030;-66
2021/01/02 06:56:08;;;;;;;28.23;18.83;;;;;;;;;;4998833;28;20080;-66
2021/01/02 06:58:35;;;;;;;27.83;19.17;;;;;;;;;;4997385;28;20065;-66
2021/01/02 07:01:06;;;;;;;30.63;18.83;;;;;;;;;;5000410;28;20037;-66
2021/01/02 07:03:40;;;;;;;26.27;18.02;;;;;;;;;;5000944;28;20030;-66
2021/01/02 07:06:24;;;;;;;27.15;18.45;;;;;;;;;;4998120;28;20049;-66
2021/01/02 07:08:50;;;;;;;30.25;19.30;;;;;;;;;;4999474;28;20103;-66
2021/01/02 07:11:25;;;;;;;27.60;19.13;;;;;;;;;;4999031;28;20030;-66
2021/01/02 07:14:16;;;;;;;27.67;19.70;;;;;;;;;;4994486;28;20026;-66
2021/01/02 07:16:49;;;;;;;28.17;20.13;;;;;;;;;;4999989;28;20116;-66
2021/01/02 07:19:27;;;;;;;28.50;19.08;;;;;;;;;;4998977;28;20671;-67
2021/01/02 07:22:01;;;;;;;28.80;18.10;;;;;;;;;;4999189;28;20037;-66
2021/01/02 07:24:28;;;;;;;29.45;18.83;;;;;;;;;;4994267;28;20050;-66
2021/01/02 07:27:04;;;;;;;26.30;18.40;;;;;;;;;;5000061;28;20051;-66
2021/01/02 07:29:36;;;;;;;25.30;17.38;;;;;;;;;;4995296;28;20072;-66
2021/01/02 07:32:13;;;;;;;23.50;17.67;;;;;;;;;;4999757;28;20036;-66
2021/01/02 07:34:43;;;;;;;29.50;17.38;;;;;;;;;;4998969;28;20057;-66
2021/01/02 07:37:12;;;;;;;25.25;18.77;;;;;;;;;;4998338;28;20041;-67
2021/01/02 07:39:39;;;;;;;29.30;20.17;;;;;;;;;;4998266;28;20505;-67
2021/01/02 07:42:11;;;;;;;26.17;18.45;;;;;;;;;;4997615;28;20038;-67
2021/01/02 07:44:40;;;;;;;22.88;17.45;;;;;;;;;;4997538;28;20169;-66
2021/01/02 07:47:06;;;;;;;24.05;17.88;;;;;;;;;;4997762;28;20037;-67
2021/01/02 07:49:32;;;;;;;27.60;18.02;;;;;;;;;;4998326;28;20050;-65
2021/01/02 07:51:57;;;;;;;30.02;20.33;;;;;;;;;;4983120;28;20042;-66
2021/01/02 07:54:30;;;;;;;37.63;26.63;;;;;;;;;;4996049;28;20096;-66
2021/01/02 07:56:55;;;;;;;31.67;23.25;;;;;;;;;;4998176;28;20113;-66
2021/01/02 07:59:32;;;;;;;27.90;18.70;;;;;;;;;;4997561;28;20133;-66
2021/01/02 08:02:01;;;;;;;29.55;19.05;;;;;;;;;;4999133;28;20065;-66
2021/01/02 08:04:28;;;;;;;28.65;19.33;;;;;;;;;;4995057;28;20042;-66
2021/01/02 08:06:59;;;;;;;28.65;18.75;;;;;;;;;;5000032;28;20608;-66
2021/01/02 08:09:25;;;;;;;24.73;17.60;;;;;;;;;;4994919;28;20042;-65
2021/01/02 08:11:55;;;;;;;25.10;17.35;;;;;;;;;;4999899;28;20033;-66
2021/01/02 08:14:22;;;;;;;26.33;18.02;;;;;;;;;;4995365;28;20038;-65
2021/01/02 08:17:07;;;;;;;28.40;18.77;;;;;;;;;;5000232;28;20037;-65
2021/01/02 08:19:51;;;;;;;26.40;18.30;;;;;;;;;;4995416;28;20046;-66
2021/01/02 08:22:31;;;;;;;26.92;17.55;;;;;;;;;;4993801;28;20039;-65
2021/01/02 08:24:59;;;;;;;25.15;18.45;;;;;;;;;;4998323;28;20104;-65
2021/01/02 08:27:26;;;;;;;28.95;19.02;;;;;;;;;;4993726;28;20428;-65
2021/01/02 08:29:53;;;;;;;23.92;18.35;;;;;;;;;;4998591;28;20584;-65
2021/01/02 08:32:21;;;;;;;25.77;17.45;;;;;;;;;;4993128;28;20054;-65
2021/01/02 08:34:47;;;;;;;23.85;17.95;;;;;;;;;;5000280;28;20026;-66
2021/01/02 08:37:15;;;;;;;26.77;18.60;;;;;;;;;;5001180;28;20104;-65
2021/01/02 08:39:41;;;;;;;23.55;17.15;;;;;;;;;;5000616;28;20042;-65
2021/01/02 08:42:07;;;;;;;26.48;18.60;;;;;;;;;;5002781;28;20366;-65
2021/01/02 08:44:35;;;;;;;27.52;20.85;;;;;;;;;;5001586;28;20034;-66
2021/01/02 08:47:05;;;;;;;30.77;19.20;;;;;;;;;;5000153;28;20121;-66
2021/01/02 08:49:33;;;;;;;26.65;19.67;;;;;;;;;;4999819;28;20072;-65
2021/01/02 08:52:18;;;;;;;29.17;18.85;;;;;;;;;;5003027;28;20373;-66
2021/01/02 08:54:45;;;;;;;28.85;18.63;;;;;;;;;;5000498;28;20132;-65
2021/01/02 08:57:26;;;;;;;26.98;18.73;;;;;;;;;;5001363;28;20053;-65
2021/01/02 08:59:52;;;;;;;26.42;18.70;;;;;;;;;;4998887;28;20066;-66
2021/01/02 09:02:18;;;;;;;40.08;19.67;;;;;;;;;;5001702;28;20465;-65
2021/01/02 09:05:06;;;;;;;25.42;18.60;;;;;;;;;;4999790;28;20104;-65
2021/01/02 09:07:32;;;;;;;29.63;18.65;;;;;;;;;;4996879;28;20054;-65
2021/01/02 09:10:17;;;;;;;35.00;19.50;;;;;;;;;;4994469;28;20072;-66
2021/01/02 09:12:44;;;;;;;27.33;18.38;;;;;;;;;;4997171;28;20125;-65
2021/01/02 09:15:10;;;;;;;25.65;18.60;;;;;;;;;;4996860;28;20048;-66
2021/01/02 09:17:48;;;;;;;29.05;18.63;;;;;;;;;;4999796;28;20034;-66
2021/01/02 09:20:18;;;;;;;25.88;17.73;;;;;;;;;;4997529;28;20081;-66
2021/01/02 09:22:53;;;;;;;28.00;17.63;;;;;;;;;;4997389;28;20069;-66
2021/01/02 09:25:29;;;;;;;29.38;17.70;;;;;;;;;;4992605;28;20042;-65
2021/01/02 09:27:55;;;;;;;25.10;18.50;;;;;;;;;;5000722;28;20069;-67
2021/01/02 09:30:21;;;;;;;26.67;17.38;;;;;;;;;;4999885;28;20657;-66
2021/01/02 09:32:47;;;;;;;25.85;18.83;;;;;;;;;;5001871;28;20576;-67
2021/01/02 09:35:12;;;;;;;27.60;18.00;;;;;;;;;;4995447;28;20042;-64
2021/01/02 09:37:38;;;;;;;26.05;17.35;;;;;;;;;;4999440;28;20046;-67
2021/01/02 09:40:10;;;;;;;25.33;16.95;;;;;;;;;;4996756;28;20030;-65
2021/01/02 09:42:36;;;;;;;20.95;16.25;;;;;;;;;;4979402;28;20026;-66
2021/01/02 09:45:01;;;;;;;20.40;14.93;;;;;;;;;;4997431;28;20738;-66
2021/01/02 09:47:26;;;;;;;24.75;15.43;;;;;;;;;;4999347;28;20026;-66
2021/01/02 09:49:52;;;;;;;24.73;15.85;;;;;;;;;;4999517;28;20032;-64
2021/01/02 09:52:17;;;;;;;23.33;15.82;;;;;;;;;;4999615;28;20029;-65
2021/01/02 09:54:42;;;;;;;21.05;15.25;;;;;;;;;;4995617;28;20050;-65
2021/01/02 09:57:08;;;;;;;19.33;14.52;;;;;;;;;;5000814;28;20103;-65
2021/01/02 09:59:33;;;;;;;19.20;15.25;;;;;;;;;;4999510;28;20043;-65
2021/01/02 10:01:58;;;;;;;24.05;15.20;;;;;;;;;;4999768;28;20066;-65
2021/01/02 10:04:23;;;;;;;20.02;14.52;;;;;;;;;;4994987;28;20146;-64
2021/01/02 10:06:49;;;;;;;22.00;14.95;;;;;;;;;;5000696;28;20065;-65
2021/01/02 10:09:15;;;;;;;20.58;13.80;;;;;;;;;;4999801;28;20132;-65
2021/01/02 10:11:43;;;;;;;20.92;14.82;;;;;;;;;;4998397;28;20055;-65
2021/01/02 10:14:09;;;;;;;19.98;14.35;;;;;;;;;;4998196;28;20049;-65
2021/01/02 10:16:34;;;;;;;21.67;13.82;;;;;;;;;;4996659;28;20030;-66
2021/01/02 10:18:59;;;;;;;18.27;13.18;;;;;;;;;;5000646;28;20049;-65
2021/01/02 10:21:25;;;;;;;16.83;12.70;;;;;;;;;;4999052;28;20397;-66
2021/01/02 10:23:50;;;;;;;17.58;12.35;;;;;;;;;;5000445;28;20445;-65
2021/01/02 10:26:22;;;;;;;16.50;12.18;;;;;;;;;;4997141;28;20029;-65
2021/01/02 10:28:48;;;;;;;18.42;11.77;;;;;;;;;;4998924;28;20361;-65
2021/01/02 10:31:31;;;;;;;17.95;11.63;;;;;;;;;;4997865;28;20048;-65
2021/01/02 10:33:57;;;;;;;16.92;12.10;;;;;;;;;;4999456;28;20042;-65
2021/01/02 10:36:22;;;;;;;16.23;11.70;;;;;;;;;;4997552;28;20053;-65
2021/01/02 10:38:47;;;;;;;17.48;12.23;;;;;;;;;;5000599;28;20033;-65
2021/01/02 10:41:14;;;;;;;20.95;12.27;;;;;;;;;;5000110;28;21009;-65
2021/01/02 10:43:39;;;;;;;17.67;10.55;;;;;;;;;;4998083;28;20097;-64
2021/01/02 10:46:06;;;;;;;17.40;10.65;;;;;;;;;;4998808;28;20084;-65
2021/01/02 10:48:31;;;;;;;16.88;10.00;;;;;;;;;;4994977;28;20041;-64
2021/01/02 10:50:57;;;;;;;14.88;10.05;;;;;;;;;;4996691;28;20042;-64
2021/01/02 10:53:22;;;;;;;13.27;9.52;;;;;;;;;;4996119;28;20030;-64
2021/01/02 10:55:47;;;;;;;14.52;10.05;;;;;;;;;;5000371;28;20033;-64
2021/01/02 10:58:14;;;;;;;15.77;10.95;;;;;;;;;;4998431;28;20038;-64
2021/01/02 11:00:40;;;;;;;15.18;10.70;;;;;;;;;;4999573;28;20454;-63
2021/01/02 11:03:05;;;;;;;16.08;10.68;;;;;;;;;;4999198;28;20056;-63
2021/01/02 11:05:31;;;;;;;13.07;10.10;;;;;;;;;;4996980;28;20046;-64
2021/01/02 11:07:56;;;;;;;13.38;9.25;;;;;;;;;;4994703;28;20365;-63
2021/01/02 11:10:22;;;;;;;12.65;9.73;;;;;;;;;;4997388;28;20025;-63
2021/01/02 11:12:47;;;;;;;16.25;9.45;;;;;;;;;;5000517;28;20029;-62
2021/01/02 11:15:13;;;;;;;13.43;10.07;;;;;;;;;;4997342;28;20045;-63
2021/01/02 11:17:39;;;;;;;15.40;9.88;;;;;;;;;;4999269;28;20398;-63
2021/01/02 11:20:06;;;;;;;14.80;10.18;;;;;;;;;;4993282;28;20065;-64
2021/01/02 11:22:32;;;;;;;13.93;8.35;;;;;;;;;;4995573;28;20030;-63
2021/01/02 11:24:57;;;;;;;12.43;9.05;;;;;;;;;;4995220;28;20083;-64
2021/01/02 11:27:23;;;;;;;12.20;9.10;;;;;;;;;;4997628;28;20035;-64
2021/01/02 11:29:49;;;;;;;13.38;8.90;;;;;;;;;;5000177;28;20030;-64
2021/01/02 11:32:14;;;;;;;16.48;9.18;;;;;;;;;;4997934;28;20073;-64
2021/01/02 11:34:40;;;;;;;14.52;9.73;;;;;;;;;;4997477;28;20042;-64
2021/01/02 11:37:08;;;;;;;14.80;9.15;;;;;;;;;;4998469;28;20495;-64
2021/01/02 11:39:34;;;;;;;14.55;9.23;;;;;;;;;;4996101;28;20045;-65
2021/01/02 11:42:02;;;;;;;12.57;9.18;;;;;;;;;;4994501;28;20724;-63
2021/01/02 11:44:28;;;;;;;14.23;9.30;;;;;;;;;;4992973;28;20034;-66
2021/01/02 11:46:55;;;;;;;11.00;8.63;;;;;;;;;;5000145;28;20060;-65
2021/01/02 11:49:38;;;;;;;15.02;9.98;;;;;;;;;;4996384;28;20026;-65
2021/01/02 11:52:07;;;;;;;15.90;11.32;;;;;;;;;;4993702;28;20544;-65
2021/01/02 11:54:34;;;;;;;13.65;9.40;;;;;;;;;;4996042;28;20035;-65
2021/01/02 11:57:00;;;;;;;19.08;9.05;;;;;;;;;;4997617;28;20053;-65
2021/01/02 11:59:26;;;;;;;13.95;9.00;;;;;;;;;;4993418;28;20038;-65
2021/01/02 12:01:55;;;;;;;12.55;8.70;;;;;;;;;;4999525;28;20045;-66
2021/01/02 12:04:23;;;;;;;12.68;7.53;;;;;;;;;;4997401;28;20038;-67
2021/01/02 12:06:50;;;;;;;14.88;8.23;;;;;;;;;;4998512;28;20049;-65
2021/01/02 12:09:18;;;;;;;11.32;7.72;;;;;;;;;;5000125;28;20041;-65
2021/01/02 12:11:45;;;;;;;15.68;10.02;;;;;;;;;;5002245;28;20053;-64
2021/01/02 12:14:13;;;;;;;12.07;8.18;;;;;;;;;;5000670;28;20088;-65
2021/01/02 12:16:42;;;;;;;11.43;7.63;;;;;;;;;;5000600;28;20122;-65
2021/01/02 12:19:11;;;;;;;10.30;7.15;;;;;;;;;;5001138;28;20461;-66
2021/01/02 12:21:38;;;;;;;9.63;6.85;;;;;;;;;;5000225;28;20113;-65
2021/01/02 12:24:04;;;;;;;12.32;7.03;;;;;;;;;;5002587;28;20631;-64
2021/01/02 12:26:29;;;;;;;9.27;6.03;;;;;;;;;;4997999;28;20441;-65
2021/01/02 12:28:55;;;;;;;10.25;6.43;;;;;;;;;;5002507;28;20033;-65
2021/01/02 12:31:25;;;;;;;12.43;7.25;;;;;;;;;;5001765;28;20030;-65
2021/01/02 12:33:51;;;;;;;10.17;7.63;;;;;;;;;;4999671;28;20125;-64
2021/01/02 12:36:19;;;;;;;9.52;6.90;;;;;;;;;;4998903;28;20278;-65
2021/01/02 12:38:45;;;;;;;9.32;6.15;;;;;;;;;;5000716;28;20049;-66
2021/01/02 12:41:15;;;;;;;13.15;6.32;;;;;;;;;;5000805;28;20030;-65
2021/01/02 12:43:42;;;;;;;9.17;5.63;;;;;;;;;;4999335;28;20137;-65
2021/01/02 12:46:09;;;;;;;7.22;4.68;;;;;;;;;;5000115;28;20670;-65
2021/01/02 12:48:34;;;;;;;8.00;5.38;;;;;;;;;;4999437;28;20034;-64
2021/01/02 12:51:00;;;;;;;7.88;5.00;;;;;;;;;;5000177;28;20041;-64
2021/01/02 12:53:25;;;;;;;6.78;4.63;;;;;;;;;;4994645;28;20030;-63
2021/01/02 12:55:50;;;;;;;8.27;4.57;;;;;;;;;;4998169;28;20073;-66
2021/01/02 12:58:16;;;;;;;8.45;4.75;;;;;;;;;;5000438;28;20038;-66
2021/01/02 13:00:41;;;;;;;6.53;4.13;;;;;;;;;;5001096;28;20038;-65
2021/01/02 13:03:06;;;;;;;7.20;4.18;;;;;;;;;;5000023;28;20173;-66
2021/01/02 13:05:32;;;;;;;7.40;3.88;;;;;;;;;;4999242;28;20631;-66
2021/01/02 13:07:57;;;;;;;11.15;4.65;;;;;;;;;;5000165;28;20042;-67
2021/01/02 13:10:23;;;;;;;8.90;4.70;;;;;;;;;;4998684;28;20056;-67
2021/01/02 13:12:48;;;;;;;9.57;5.30;;;;;;;;;;4998532;28;20575;-66
2021/01/02 13:15:13;;;;;;;6.63;4.25;;;;;;;;;;5001239;28;20050;-65
2021/01/02 13:17:39;;;;;;;5.55;3.45;;;;;;;;;;4999725;28;20041;-65
2021/01/02 13:20:05;;;;;;;4.72;2.92;;;;;;;;;;5000410;28;20037;-65
2021/01/02 13:22:30;;;;;;;3.95;2.20;;;;;;;;;;5000668;28;20034;-65
2021/01/02 13:24:56;;;;;;;7.95;2.90;;;;;;;;;;4996230;28;20042;-64
2021/01/02 13:27:21;;;;;;;7.93;2.28;;;;;;;;;;4998395;28;20049;-66
2021/01/02 13:29:49;;;;;;;4.57;2.38;;;;;;;;;;4998762;28;20453;-65
2021/01/02 13:32:15;;;;;;;5.47;2.00;;;;;;;;;;4995875;28;20034;-65
2021/01/02 13:34:41;;;;;;;5.10;2.10;;;;;;;;;;4996647;28;20026;-66
2021/01/02 13:37:08;;;;;;;6.10;2.58;;;;;;;;;;4999694;28;20045;-65
2021/01/02 13:39:34;;;;;;;3.80;2.17;;;;;;;;;;4999465;28;20572;-67
2021/01/02 13:42:00;;;;;;;4.00;2.20;;;;;;;;;;4999253;28;20042;-68
2021/01/02 13:44:26;;;;;;;4.53;2.28;;;;;;;;;;4997286;28;20469;-66
2021/01/02 13:46:58;;;;;;;4.22;2.33;;;;;;;;;;5000509;28;20038;-64
2021/01/02 13:49:23;;;;;;;3.78;1.95;;;;;;;;;;4997557;28;20394;-64
2021/01/02 13:51:49;;;;;;;5.30;2.15;;;;;;;;;;4999922;28;20079;-63
2021/01/02 13:54:14;;;;;;;5.50;1.75;;;;;;;;;;4996707;28;20121;-64
2021/01/02 13:56:47;;;;;;;3.20;1.55;;;;;;;;;;4998216;28;20084;-65
2021/01/02 13:59:18;;;;;;;3.72;1.77;;;;;;;;;;4998281;28;20064;-64
2021/01/02 14:01:43;;;;;;;4.07;1.95;;;;;;;;;;4999987;28;20062;-65
2021/01/02 14:04:09;;;;;;;3.10;1.80;;;;;;;;;;5000541;28;20516;-66
2021/01/02 14:06:34;;;;;;;4.15;2.15;;;;;;;;;;4997911;28;20120;-65
2021/01/02 14:09:00;;;;;;;3.75;2.00;;;;;;;;;;5000397;28;20041;-65
2021/01/02 14:11:26;;;;;;;4.30;1.92;;;;;;;;;;4997635;28;20034;-65
2021/01/02 14:13:53;;;;;;;5.10;2.47;;;;;;;;;;5001726;28;20112;-64
2021/01/02 14:16:19;;;;;;;2.67;1.50;;;;;;;;;;4998841;28;20129;-65
2021/01/02 14:18:48;;;;;;;5.72;2.17;;;;;;;;;;4998115;28;20041;-65
2021/01/02 14:21:14;;;;;;;4.65;2.35;;;;;;;;;;4999275;28;20065;-66
2021/01/02 14:23:40;;;;;;;5.30;1.98;;;;;;;;;;5000453;28;20069;-65
2021/01/02 14:26:11;;;;;;;3.90;1.95;;;;;;;;;;4997069;28;20080;-66
2021/01/02 14:28:36;;;;;;;3.38;1.90;;;;;;;;;;5000028;28;20034;-66
2021/01/02 14:31:02;;;;;;;6.18;3.08;;;;;;;;;;5000020;28;20196;-66
2021/01/02 14:33:27;;;;;;;5.53;2.38;;;;;;;;;;4995104;28;20112;-66
2021/01/02 14:35:52;;;;;;;6.53;3.67;;;;;;;;;;5001605;28;20049;-66
2021/01/02 14:38:18;;;;;;;3.88;2.00;;;;;;;;;;4999210;28;20086;-66